Time;durP1;ratioP1;P1;durP2;ratioP2;P2;SDS_P1;SDS_P2;PMS_P1;PMS_P2;Temp;Humidity;BMP_temperature;BMP_pressure;BME280_temperature;BME280_humidity;BME280_pressure;Samples;Min_cycle;Max_cycle;Signal;HPM_P1;HPM_P2
2021/11/26 00:00:12;;;;;;;7.40;2.90;;;13.60;99.90;;;;;;5001685;28;20693;-65
2021/11/26 00:02:38;;;;;;;9.43;2.90;;;13.60;99.90;;;;;;4998311;28;20185;-64
2021/11/26 00:05:05;;;;;;;8.13;3.03;;;13.60;99.90;;;;;;5002018;28;20334;-64
2021/11/26 00:07:32;;;;;;;9.53;3.30;;;13.60;99.90;;;;;;4990140;28;21520;-64
2021/11/26 00:09:58;;;;;;;5.20;2.70;;;13.60;99.90;;;;;;5016213;28;20956;-64
2021/11/26 00:12:24;;;;;;;6.57;3.23;;;13.60;99.90;;;;;;5001804;28;20577;-63
2021/11/26 00:17:26;;;;;;;4.40;2.40;;;13.70;99.90;;;;;;5032972;28;20188;-63
2021/11/26 00:19:53;;;;;;;6.70;2.80;;;13.70;99.90;;;;;;4999136;28;20231;-64
2021/11/26 00:22:20;;;;;;;4.37;3.17;;;13.70;99.90;;;;;;5033221;28;20222;-64
2021/11/26 00:24:48;;;;;;;6.70;3.10;;;13.70;99.90;;;;;;5016460;28;20223;-64
2021/11/26 00:27:15;;;;;;;6.13;3.03;;;13.70;99.90;;;;;;4992222;28;20877;-63
2021/11/26 00:29:41;;;;;;;4.93;2.87;;;13.70;99.90;;;;;;5001102;28;20193;-64
2021/11/26 00:32:07;;;;;;;7.87;2.80;;;13.70;99.90;;;;;;5001242;28;20632;-64
2021/11/26 00:34:34;;;;;;;8.53;3.20;;;13.60;99.90;;;;;;5000696;28;20184;-65
2021/11/26 00:37:00;;;;;;;6.03;3.43;;;13.60;99.90;;;;;;4997486;28;20188;-65
2021/11/26 00:39:26;;;;;;;8.87;3.43;;;13.60;99.90;;;;;;4996272;28;20200;-65
2021/11/26 00:41:52;;;;;;;8.10;3.43;;;13.60;99.90;;;;;;5032037;28;20207;-65
2021/11/26 00:44:19;;;;;;;5.07;3.20;;;13.70;99.90;;;;;;4982819;28;20209;-65
2021/11/26 00:46:45;;;;;;;13.43;3.80;;;13.70;99.90;;;;;;5000342;28;20209;-64
2021/11/26 00:49:12;;;;;;;10.43;3.33;;;13.80;99.90;;;;;;4998616;28;20216;-67
2021/11/26 00:51:38;;;;;;;5.87;3.10;;;13.80;99.90;;;;;;5004293;28;20254;-67
2021/11/26 00:54:04;;;;;;;6.33;3.87;;;13.70;99.90;;;;;;4992882;28;20200;-67
2021/11/26 00:56:31;;;;;;;9.37;3.50;;;13.80;99.90;;;;;;5000243;28;20193;-67
2021/11/26 00:58:57;;;;;;;8.70;3.73;;;13.70;99.90;;;;;;4997149;28;20192;-67
2021/11/26 01:01:23;;;;;;;5.50;3.37;;;13.70;99.90;;;;;;5000960;28;20193;-67
2021/11/26 01:03:52;;;;;;;8.03;3.20;;;13.70;99.90;;;;;;5001547;28;20242;-67
2021/11/26 01:06:18;;;;;;;7.27;3.87;;;13.70;99.90;;;;;;5000675;28;20201;-67
2021/11/26 01:08:44;;;;;;;10.97;3.60;;;13.70;99.90;;;;;;4994145;28;20574;-66
2021/11/26 01:11:10;;;;;;;11.83;3.90;;;13.70;99.90;;;;;;4998906;28;20816;-66
2021/11/26 01:13:36;;;;;;;8.37;3.80;;;13.70;99.90;;;;;;5018318;28;20228;-66
2021/11/26 01:16:03;;;;;;;6.10;3.40;;;13.70;99.90;;;;;;4999902;28;20849;-66
2021/11/26 01:18:29;;;;;;;7.63;3.80;;;13.80;99.90;;;;;;4999298;28;20211;-66
2021/11/26 01:20:56;;;;;;;8.27;3.30;;;13.70;99.90;;;;;;4998339;28;20199;-67
2021/11/26 01:23:24;;;;;;;6.70;3.17;;;13.70;99.90;;;;;;4997953;28;20208;-66
2021/11/26 01:25:52;;;;;;;6.07;3.80;;;13.70;99.90;;;;;;5013713;28;20326;-67
2021/11/26 01:28:19;;;;;;;6.93;3.63;;;13.60;99.90;;;;;;5029772;28;20227;-66
2021/11/26 01:30:46;;;;;;;6.93;3.50;;;13.70;99.90;;;;;;5032228;28;20212;-67
2021/11/26 01:33:17;;;;;;;6.47;3.77;;;13.70;99.90;;;;;;5003917;28;20225;-66
2021/11/26 01:35:49;;;;;;;6.00;3.63;;;13.70;99.90;;;;;;4999041;28;20778;-66
2021/11/26 01:38:15;;;;;;;8.83;3.70;;;13.70;99.90;;;;;;5030799;28;20231;-66
2021/11/26 01:40:45;;;;;;;8.97;4.27;;;13.70;99.90;;;;;;4986293;28;20522;-66
2021/11/26 01:43:15;;;;;;;6.77;3.77;;;13.70;99.90;;;;;;4999874;28;20239;-66
2021/11/26 01:45:47;;;;;;;10.63;4.03;;;13.70;99.90;;;;;;5002089;28;20203;-66
2021/11/26 01:48:15;;;;;;;7.47;3.70;;;13.60;99.90;;;;;;5003019;28;20266;-66
2021/11/26 01:50:41;;;;;;;7.20;3.73;;;13.60;99.90;;;;;;5005138;28;20189;-66
2021/11/26 01:53:08;;;;;;;8.43;4.13;;;13.70;99.90;;;;;;5004771;28;20185;-67
2021/11/26 01:55:35;;;;;;;9.27;3.90;;;13.60;99.90;;;;;;5019560;28;20195;-66
2021/11/26 01:58:02;;;;;;;8.00;4.00;;;13.60;99.90;;;;;;5008042;28;20200;-66
2021/11/26 02:00:34;;;;;;;7.23;3.60;;;13.60;99.90;;;;;;5004264;28;20910;-65
2021/11/26 02:03:00;;;;;;;13.13;4.10;;;13.60;99.90;;;;;;5003291;28;20220;-65
2021/11/26 02:05:27;;;;;;;6.17;3.83;;;13.60;99.90;;;;;;5035252;28;20576;-66
2021/11/26 02:07:53;;;;;;;4.67;3.73;;;13.60;99.90;;;;;;5003229;28;20235;-65
2021/11/26 02:10:19;;;;;;;7.43;4.10;;;13.60;99.90;;;;;;5000036;28;20303;-65
2021/11/26 02:12:48;;;;;;;6.60;4.20;;;13.60;99.90;;;;;;5007498;28;20203;-65
2021/11/26 02:15:25;;;;;;;8.17;4.07;;;13.60;99.90;;;;;;5035347;28;20803;-64
2021/11/26 02:17:54;;;;;;;9.33;4.10;;;13.60;99.90;;;;;;5002265;28;20228;-65
2021/11/26 02:20:24;;;;;;;6.93;3.97;;;13.60;99.90;;;;;;5002370;28;20197;-64
2021/11/26 02:22:53;;;;;;;6.03;3.53;;;13.60;99.90;;;;;;5003701;28;20260;-67
2021/11/26 02:25:22;;;;;;;6.97;4.33;;;13.60;99.90;;;;;;5003344;28;20192;-66
2021/11/26 02:27:51;;;;;;;6.17;4.20;;;13.60;99.90;;;;;;5002117;28;20221;-65
2021/11/26 02:30:19;;;;;;;9.40;4.40;;;13.60;99.90;;;;;;5003800;28;20279;-66
2021/11/26 02:32:59;;;;;;;6.73;4.00;;;13.60;99.90;;;;;;5003011;28;20211;-65
2021/11/26 02:35:28;;;;;;;5.67;3.70;;;13.60;99.90;;;;;;5002259;28;20212;-66
2021/11/26 02:37:56;;;;;;;7.53;3.83;;;13.60;99.90;;;;;;5003301;28;20680;-65
2021/11/26 02:40:26;;;;;;;8.77;4.40;;;13.60;99.90;;;;;;5000028;28;20192;-65
2021/11/26 02:42:54;;;;;;;6.63;4.10;;;13.60;99.90;;;;;;4995208;28;20228;-65
2021/11/26 02:45:22;;;;;;;11.40;4.47;;;13.50;99.90;;;;;;5034594;28;20197;-65
2021/11/26 02:47:49;;;;;;;11.30;4.23;;;13.60;99.90;;;;;;5009425;28;20217;-65
2021/11/26 02:50:19;;;;;;;12.80;4.30;;;13.60;99.90;;;;;;4980905;28;20193;-65
2021/11/26 02:52:46;;;;;;;8.90;4.20;;;13.60;99.90;;;;;;5003768;28;20790;-65
2021/11/26 02:55:18;;;;;;;10.13;4.17;;;13.60;99.90;;;;;;5002192;28;20192;-65
2021/11/26 02:57:45;;;;;;;4.97;3.77;;;13.60;99.90;;;;;;5001889;28;20183;-63
2021/11/26 03:00:16;;;;;;;6.47;5.13;;;13.60;99.90;;;;;;5002844;28;20243;-64
2021/11/26 03:02:42;;;;;;;4.93;4.03;;;13.60;99.90;;;;;;5010666;28;20380;-67
2021/11/26 03:05:10;;;;;;;7.20;3.90;;;13.70;99.90;;;;;;5002958;28;20287;-64
2021/11/26 03:07:36;;;;;;;6.47;3.90;;;13.70;99.90;;;;;;5002895;28;20208;-64
2021/11/26 03:10:05;;;;;;;9.37;3.90;;;13.60;99.90;;;;;;5034256;28;20189;-64
2021/11/26 03:12:32;;;;;;;11.60;4.30;;;13.70;99.90;;;;;;4997435;28;20193;-64
2021/11/26 03:14:59;;;;;;;8.77;3.90;;;13.70;99.90;;;;;;5030634;28;20192;-64
2021/11/26 03:17:26;;;;;;;8.80;4.00;;;13.70;99.90;;;;;;5002186;28;20210;-64
2021/11/26 03:19:52;;;;;;;8.03;4.23;;;13.70;99.90;;;;;;5034494;28;22114;-64
2021/11/26 03:22:19;;;;;;;8.40;4.37;;;13.70;99.90;;;;;;5033471;28;20651;-64
2021/11/26 03:24:45;;;;;;;8.50;4.23;;;13.70;99.90;;;;;;5002271;28;20567;-65
2021/11/26 03:27:12;;;;;;;6.73;3.90;;;13.70;99.90;;;;;;5001995;28;20212;-67
2021/11/26 03:29:38;;;;;;;7.97;3.97;;;13.70;99.90;;;;;;5000334;28;20185;-67
2021/11/26 03:32:05;;;;;;;7.13;4.17;;;13.70;99.90;;;;;;5001144;28;20176;-67
2021/11/26 03:34:31;;;;;;;7.77;4.20;;;13.60;99.90;;;;;;4996582;28;20518;-67
2021/11/26 03:36:57;;;;;;;7.43;4.30;;;13.60;99.90;;;;;;5003746;28;20193;-64
2021/11/26 03:39:23;;;;;;;7.97;3.73;;;13.60;99.90;;;;;;4998005;28;20182;-66
2021/11/26 03:41:50;;;;;;;8.03;4.30;;;13.60;99.90;;;;;;4989253;28;20962;-66
2021/11/26 03:44:16;;;;;;;6.37;3.90;;;13.60;99.90;;;;;;4998269;28;20307;-65
2021/11/26 03:46:42;;;;;;;6.93;3.93;;;13.70;99.90;;;;;;5006853;28;20201;-66
2021/11/26 03:49:08;;;;;;;5.83;3.80;;;13.70;99.90;;;;;;5004708;28;20201;-66
2021/11/26 03:51:35;;;;;;;7.70;3.87;;;13.70;99.90;;;;;;5006137;28;20223;-66
2021/11/26 03:54:01;;;;;;;7.80;3.80;;;13.70;99.90;;;;;;5005959;28;20184;-66
2021/11/26 03:56:27;;;;;;;7.17;3.67;;;13.70;99.90;;;;;;4989013;28;20181;-66
2021/11/26 03:58:54;;;;;;;5.70;3.93;;;13.60;99.90;;;;;;5006221;28;20283;-65
2021/11/26 04:01:20;;;;;;;9.10;4.60;;;13.60;99.90;;;;;;5005749;28;20184;-65
2021/11/26 04:03:46;;;;;;;6.70;3.73;;;13.60;99.90;;;;;;5004005;28;20227;-65
2021/11/26 04:06:12;;;;;;;8.10;3.97;;;13.60;99.90;;;;;;5004963;28;20196;-65
2021/11/26 04:08:38;;;;;;;8.60;3.73;;;13.60;99.90;;;;;;5006150;28;20219;-65
2021/11/26 04:11:05;;;;;;;10.20;4.10;;;13.50;99.90;;;;;;4999941;28;20188;-64
2021/11/26 04:13:31;;;;;;;6.77;3.90;;;13.40;99.90;;;;;;4999670;28;20208;-66
2021/11/26 04:16:03;;;;;;;9.30;4.00;;;13.40;99.90;;;;;;4999174;28;20193;-65
2021/11/26 04:18:33;;;;;;;7.03;3.53;;;13.40;99.90;;;;;;5011835;28;20188;-65
2021/11/26 04:21:02;;;;;;;6.03;3.67;;;13.40;99.90;;;;;;5006513;28;20658;-65
2021/11/26 04:23:28;;;;;;;10.37;4.73;;;13.40;99.90;;;;;;5003239;28;20189;-65
2021/11/26 04:25:55;;;;;;;6.47;4.23;;;13.40;99.90;;;;;;5017193;28;20189;-66
2021/11/26 04:28:23;;;;;;;7.67;3.80;;;13.40;99.90;;;;;;5005686;28;20217;-66
2021/11/26 04:30:49;;;;;;;5.00;3.47;;;13.40;99.90;;;;;;5005384;28;20189;-66
2021/11/26 04:33:16;;;;;;;6.50;3.87;;;13.40;99.90;;;;;;5004789;28;20188;-67
2021/11/26 04:35:48;;;;;;;8.30;4.03;;;13.40;99.90;;;;;;5002471;28;20192;-66
2021/11/26 04:38:16;;;;;;;7.70;4.00;;;13.40;99.90;;;;;;5004001;28;20201;-67
2021/11/26 04:40:42;;;;;;;11.57;4.03;;;13.50;99.90;;;;;;5006445;28;20189;-67
2021/11/26 04:43:09;;;;;;;9.40;4.00;;;13.50;99.90;;;;;;5037734;28;20412;-68
2021/11/26 04:45:35;;;;;;;9.50;3.73;;;13.40;99.90;;;;;;5030102;28;20248;-68
2021/11/26 04:48:01;;;;;;;9.50;3.83;;;13.40;99.90;;;;;;5036671;28;20244;-67
2021/11/26 04:50:28;;;;;;;6.20;3.60;;;13.40;99.90;;;;;;5021094;28;20296;-67
2021/11/26 04:52:54;;;;;;;8.30;3.57;;;13.40;99.90;;;;;;5015720;28;20194;-66
2021/11/26 04:55:21;;;;;;;10.53;3.70;;;13.40;99.90;;;;;;4993120;28;20185;-66
2021/11/26 04:57:48;;;;;;;5.97;3.80;;;13.40;99.90;;;;;;4987980;28;20196;-65
2021/11/26 05:00:18;;;;;;;6.00;4.00;;;13.40;99.90;;;;;;5002859;28;20288;-66
2021/11/26 05:02:45;;;;;;;11.73;3.90;;;13.40;99.90;;;;;;5035982;28;20197;-66
2021/11/26 05:05:12;;;;;;;12.93;4.00;;;13.50;99.90;;;;;;4996508;28;20197;-68
2021/11/26 05:07:38;;;;;;;7.17;3.80;;;13.50;99.90;;;;;;5037244;28;20239;-67
2021/11/26 05:10:07;;;;;;;5.87;3.90;;;13.50;99.90;;;;;;5034623;28;20242;-69
2021/11/26 05:12:38;;;;;;;5.80;3.40;;;13.40;99.90;;;;;;5003471;28;20255;-68
2021/11/26 05:15:09;;;;;;;7.60;4.00;;;13.40;99.90;;;;;;5016178;28;20204;-69
2021/11/26 05:17:36;;;;;;;7.40;3.60;;;13.50;99.90;;;;;;4997449;28;20247;-69
2021/11/26 05:20:04;;;;;;;5.63;3.47;;;13.50;99.90;;;;;;5003249;28;20201;-68
2021/11/26 05:22:30;;;;;;;7.10;3.43;;;13.50;99.90;;;;;;5018015;28;20228;-68
2021/11/26 05:24:56;;;;;;;6.63;4.20;;;13.60;99.90;;;;;;5004042;28;20533;-67
2021/11/26 05:27:22;;;;;;;7.47;3.60;;;13.50;99.90;;;;;;5005441;28;20212;-67
2021/11/26 05:29:49;;;;;;;9.57;3.77;;;13.60;99.90;;;;;;5018876;28;20197;-66
2021/11/26 05:32:15;;;;;;;7.07;3.80;;;13.60;99.90;;;;;;5005578;28;20189;-66
2021/11/26 05:34:42;;;;;;;7.80;3.70;;;13.60;99.90;;;;;;5005091;28;20204;-67
2021/11/26 05:37:08;;;;;;;5.97;3.67;;;13.60;99.90;;;;;;4998516;28;20506;-66
2021/11/26 05:39:37;;;;;;;8.77;3.93;;;13.60;99.90;;;;;;5004973;28;20208;-67
2021/11/26 05:42:03;;;;;;;11.47;3.90;;;13.70;99.90;;;;;;5003710;28;20209;-67
2021/11/26 05:44:30;;;;;;;6.93;3.80;;;13.70;99.90;;;;;;5004987;28;20199;-67
2021/11/26 05:46:56;;;;;;;6.23;3.93;;;13.80;99.90;;;;;;5026629;28;20586;-66
2021/11/26 05:49:22;;;;;;;9.33;3.83;;;13.90;99.90;;;;;;5001938;28;20197;-68
2021/11/26 05:51:48;;;;;;;10.07;3.83;;;14.00;99.90;;;;;;5004100;28;20199;-69
2021/11/26 05:54:15;;;;;;;6.77;3.60;;;14.10;99.90;;;;;;5019248;28;20193;-67
2021/11/26 05:56:41;;;;;;;6.07;3.93;;;14.20;99.90;;;;;;5004889;28;20649;-66
2021/11/26 05:59:08;;;;;;;11.07;4.40;;;14.20;99.90;;;;;;4999429;28;20668;-66
2021/11/26 06:01:34;;;;;;;7.57;3.70;;;14.30;99.90;;;;;;5005776;28;20702;-65
2021/11/26 06:04:00;;;;;;;9.67;3.90;;;14.30;99.90;;;;;;5004769;28;20306;-64
2021/11/26 06:06:27;;;;;;;6.13;3.50;;;14.40;99.90;;;;;;5002596;28;20208;-65
2021/11/26 06:08:53;;;;;;;7.87;3.50;;;14.40;99.90;;;;;;5002100;28;20189;-66
2021/11/26 06:11:20;;;;;;;8.80;3.30;;;14.50;99.90;;;;;;5002304;28;20529;-65
2021/11/26 06:13:47;;;;;;;8.23;3.87;;;14.50;99.90;;;;;;5004887;28;20868;-65
2021/11/26 06:16:15;;;;;;;7.67;3.60;;;14.60;99.90;;;;;;5004038;28;20193;-65
2021/11/26 06:18:42;;;;;;;7.47;3.47;;;14.60;99.90;;;;;;4993488;28;20255;-66
2021/11/26 06:21:08;;;;;;;6.37;3.50;;;14.70;99.90;;;;;;5002968;28;20185;-66
2021/11/26 06:23:34;;;;;;;4.97;2.80;;;14.80;99.90;;;;;;5004950;28;20215;-66
2021/11/26 06:26:00;;;;;;;6.27;3.60;;;14.80;99.90;;;;;;4999426;28;20245;-66
2021/11/26 06:28:26;;;;;;;5.57;3.20;;;14.90;99.90;;;;;;5030597;28;20228;-66
2021/11/26 06:30:53;;;;;;;4.93;3.50;;;15.00;99.90;;;;;;5023080;28;20189;-66
2021/11/26 06:33:19;;;;;;;5.10;2.87;;;15.00;99.90;;;;;;5008700;28;20292;-66
2021/11/26 06:35:45;;;;;;;8.40;3.30;;;15.00;99.90;;;;;;5023605;28;20212;-66
2021/11/26 06:38:11;;;;;;;4.90;3.10;;;15.00;99.90;;;;;;5006659;28;20218;-66
2021/11/26 06:40:38;;;;;;;6.50;3.50;;;15.00;99.90;;;;;;5007963;28;20197;-66
2021/11/26 06:43:04;;;;;;;6.70;3.50;;;15.10;99.90;;;;;;5006845;28;20196;-66
2021/11/26 06:45:30;;;;;;;8.57;3.20;;;15.10;99.90;;;;;;5002382;28;20671;-66
2021/11/26 06:47:56;;;;;;;14.33;2.93;;;15.20;99.90;;;;;;5004088;28;20283;-67
2021/11/26 06:50:23;;;;;;;5.30;3.20;;;15.20;99.90;;;;;;5001726;28;20291;-67
2021/11/26 06:52:50;;;;;;;4.23;2.80;;;15.30;99.90;;;;;;5008270;28;20205;-67
2021/11/26 06:55:16;;;;;;;8.43;2.97;;;15.40;99.90;;;;;;4989825;28;20662;-67
2021/11/26 06:57:44;;;;;;;4.87;2.57;;;15.40;99.90;;;;;;4989192;28;20192;-66
2021/11/26 07:00:15;;;;;;;8.73;2.60;;;15.50;99.90;;;;;;5007444;28;20272;-66
2021/11/26 07:02:41;;;;;;;10.73;3.00;;;15.50;99.90;;;;;;5006214;28;20700;-66
2021/11/26 07:05:08;;;;;;;4.07;3.07;;;15.60;99.90;;;;;;5005366;28;20672;-66
2021/11/26 07:07:35;;;;;;;4.33;2.67;;;15.60;99.90;;;;;;5006188;28;20224;-65
2021/11/26 07:10:04;;;;;;;4.23;2.60;;;15.60;99.90;;;;;;5005286;28;20211;-67
2021/11/26 07:12:32;;;;;;;3.57;2.37;;;15.60;99.90;;;;;;5006440;28;20197;-65
2021/11/26 07:14:58;;;;;;;4.90;2.67;;;15.60;99.90;;;;;;4996441;28;20193;-65
2021/11/26 07:17:24;;;;;;;3.93;2.70;;;15.60;99.90;;;;;;5037969;28;20193;-65
2021/11/26 07:19:50;;;;;;;3.23;2.43;;;15.60;99.90;;;;;;4996427;28;20200;-69
2021/11/26 07:22:18;;;;;;;3.47;2.40;;;15.70;99.90;;;;;;5006236;28;20243;-65
2021/11/26 07:24:45;;;;;;;6.73;2.80;;;15.70;99.90;;;;;;5005527;28;20228;-65
2021/11/26 07:27:13;;;;;;;7.57;3.20;;;15.70;99.90;;;;;;5022136;28;20251;-67
2021/11/26 07:29:39;;;;;;;5.67;2.80;;;15.70;99.90;;;;;;5007097;28;20985;-63
2021/11/26 07:32:09;;;;;;;8.20;2.70;;;15.70;99.90;;;;;;5005752;28;20196;-64
2021/11/26 07:34:36;;;;;;;4.10;2.40;;;15.80;99.90;;;;;;5004968;28;20203;-64
2021/11/26 07:37:02;;;;;;;4.40;2.40;;;15.80;99.90;;;;;;5037893;28;20659;-66
2021/11/26 07:39:35;;;;;;;6.37;2.70;;;15.90;99.90;;;;;;5005539;28;20200;-67
2021/11/26 07:42:04;;;;;;;7.17;2.93;;;15.90;99.90;;;;;;5018135;28;20291;-66
2021/11/26 07:44:33;;;;;;;9.13;2.93;;;15.90;99.90;;;;;;5004930;28;20263;-65
2021/11/26 07:47:00;;;;;;;6.33;2.20;;;15.90;99.90;;;;;;5006367;28;20247;-65
2021/11/26 07:49:28;;;;;;;8.93;2.60;;;16.00;99.90;;;;;;5002527;28;20654;-65
2021/11/26 07:52:01;;;;;;;6.00;2.93;;;16.00;99.90;;;;;;4994399;28;20198;-68
2021/11/26 07:54:28;;;;;;;5.27;2.87;;;16.10;99.90;;;;;;5003500;28;20633;-67
2021/11/26 07:56:55;;;;;;;5.30;2.90;;;16.10;99.90;;;;;;5004592;28;20201;-66
2021/11/26 07:59:23;;;;;;;3.37;2.50;;;16.10;99.90;;;;;;5021405;28;20289;-66
2021/11/26 08:01:50;;;;;;;5.63;2.20;;;16.20;99.90;;;;;;5004659;28;20204;-69
2021/11/26 08:04:17;;;;;;;4.70;2.60;;;16.20;99.90;;;;;;5002284;28;20370;-66
2021/11/26 08:06:46;;;;;;;5.77;2.30;;;16.30;99.90;;;;;;5005548;28;20219;-66
2021/11/26 08:09:17;;;;;;;2.83;2.23;;;16.30;99.90;;;;;;5035340;28;20956;-67
2021/11/26 08:11:45;;;;;;;6.60;2.37;;;16.30;99.90;;;;;;5020403;28;20189;-66
2021/11/26 08:14:12;;;;;;;5.07;2.20;;;16.40;99.90;;;;;;5018046;28;20589;-66
2021/11/26 08:16:40;;;;;;;6.33;2.40;;;16.50;99.90;;;;;;4998362;28;20196;-66
2021/11/26 08:19:08;;;;;;;3.70;2.13;;;16.50;99.90;;;;;;5002922;28;20304;-66
2021/11/26 08:21:36;;;;;;;4.47;2.23;;;16.60;99.90;;;;;;4998621;28;21961;-66
2021/11/26 08:24:05;;;;;;;3.60;2.20;;;16.60;99.90;;;;;;5000260;28;20247;-66
2021/11/26 08:26:32;;;;;;;5.40;2.30;;;16.70;99.90;;;;;;5000079;28;22834;-66
2021/11/26 08:28:58;;;;;;;5.87;2.40;;;16.80;99.90;;;;;;5000364;28;20184;-66
2021/11/26 08:31:25;;;;;;;12.03;2.60;;;16.90;99.90;;;;;;5004990;28;20263;-66
2021/11/26 08:33:51;;;;;;;4.90;2.30;;;16.90;99.90;;;;;;4981114;28;20201;-66
2021/11/26 08:36:18;;;;;;;3.23;2.03;;;16.90;99.90;;;;;;5006168;28;20288;-66
2021/11/26 08:38:44;;;;;;;4.90;2.20;;;16.90;99.90;;;;;;5002829;28;20185;-68
2021/11/26 08:41:10;;;;;;;3.63;2.30;;;16.90;99.90;;;;;;5005214;28;20243;-66
2021/11/26 08:43:37;;;;;;;5.97;2.50;;;16.90;99.90;;;;;;5001293;28;20636;-66
2021/11/26 08:46:03;;;;;;;3.70;2.00;;;17.00;99.90;;;;;;5003944;28;20638;-66
2021/11/26 08:48:30;;;;;;;4.43;2.27;;;17.20;99.90;;;;;;5003743;28;20235;-66
2021/11/26 08:50:56;;;;;;;4.13;1.83;;;17.30;99.90;;;;;;4999311;28;20189;-68
2021/11/26 08:53:23;;;;;;;6.23;2.60;;;17.40;99.90;;;;;;4995233;28;20185;-67
2021/11/26 08:55:54;;;;;;;5.43;2.80;;;17.40;99.90;;;;;;5002831;28;20189;-68
2021/11/26 08:58:21;;;;;;;3.77;2.27;;;17.40;99.90;;;;;;5001188;28;20199;-68
2021/11/26 09:00:48;;;;;;;4.97;2.20;;;17.40;99.90;;;;;;4980383;28;20224;-66
2021/11/26 09:03:16;;;;;;;4.57;2.37;;;17.40;99.90;;;;;;5001540;28;20205;-68
2021/11/26 09:05:43;;;;;;;5.70;2.50;;;17.50;99.90;;;;;;5001758;28;20541;-66
2021/11/26 09:08:15;;;;;;;5.03;2.13;;;17.50;99.90;;;;;;5002088;28;20574;-68
2021/11/26 09:10:47;;;;;;;4.23;2.20;;;17.50;99.90;;;;;;5001555;28;20223;-68
2021/11/26 09:13:16;;;;;;;4.23;2.50;;;17.60;99.90;;;;;;5002223;28;20185;-68
2021/11/26 09:15:43;;;;;;;4.27;2.23;;;17.60;99.90;;;;;;5002683;28;20567;-65
2021/11/26 09:18:12;;;;;;;5.20;2.43;;;17.70;99.90;;;;;;4983070;28;20954;-68
2021/11/26 09:20:40;;;;;;;6.87;2.20;;;17.70;99.90;;;;;;5013080;28;20189;-68
2021/11/26 09:23:09;;;;;;;5.57;2.27;;;17.80;99.90;;;;;;4998728;28;20211;-67
2021/11/26 09:25:36;;;;;;;2.43;2.07;;;17.80;99.90;;;;;;4999465;28;20203;-68
2021/11/26 09:28:04;;;;;;;4.80;2.10;;;17.80;99.90;;;;;;5002713;28;20311;-66
2021/11/26 09:30:32;;;;;;;3.60;1.70;;;17.90;99.90;;;;;;5003509;28;20838;-66
2021/11/26 09:32:59;;;;;;;4.53;2.20;;;17.90;99.90;;;;;;5003626;28;20216;-66
2021/11/26 09:35:27;;;;;;;3.90;2.07;;;17.90;99.90;;;;;;4985151;28;20621;-65
2021/11/26 09:37:54;;;;;;;3.37;2.13;;;18.00;99.90;;;;;;4999390;28;20798;-66
2021/11/26 09:40:21;;;;;;;6.07;2.20;;;18.00;99.90;;;;;;5035359;28;20196;-67
2021/11/26 09:42:48;;;;;;;4.27;2.33;;;18.10;99.90;;;;;;5005316;28;20199;-66
2021/11/26 09:45:21;;;;;;;8.00;2.30;;;18.20;99.90;;;;;;5012643;28;20200;-66
2021/11/26 09:47:50;;;;;;;5.93;2.10;;;18.20;99.90;;;;;;5002273;28;20205;-66
2021/11/26 09:50:19;;;;;;;2.53;1.90;;;18.20;99.90;;;;;;5001885;28;20189;-66
2021/11/26 09:52:46;;;;;;;4.87;2.10;;;18.30;99.90;;;;;;5003692;28;20188;-68
2021/11/26 09:55:17;;;;;;;5.07;1.90;;;18.30;99.90;;;;;;4992524;28;20541;-66
2021/11/26 09:57:46;;;;;;;6.60;2.17;;;18.30;99.90;;;;;;5004707;28;20193;-66
2021/11/26 10:00:17;;;;;;;4.13;2.10;;;18.30;99.90;;;;;;5001446;28;20193;-66
2021/11/26 10:02:58;;;;;;;3.67;2.30;;;18.20;99.90;;;;;;4998280;28;20196;-65
2021/11/26 10:05:25;;;;;;;6.87;2.40;;;18.30;99.90;;;;;;5008480;28;20641;-66
2021/11/26 10:07:54;;;;;;;8.10;2.40;;;18.30;99.90;;;;;;5021623;28;20279;-69
2021/11/26 10:10:36;;;;;;;4.23;2.10;;;18.30;99.90;;;;;;5006920;28;20184;-67
2021/11/26 10:13:13;;;;;;;4.43;2.27;;;18.30;99.90;;;;;;5020043;28;20267;-67
2021/11/26 10:15:44;;;;;;;6.40;2.23;;;18.40;99.90;;;;;;5004457;28;20196;-67
2021/11/26 10:18:22;;;;;;;5.03;2.00;;;18.80;99.90;;;;;;5037713;28;20184;-67
2021/11/26 10:21:09;;;;;;;4.97;2.03;;;19.40;99.90;;;;;;5002132;28;20191;-67
2021/11/26 10:23:46;;;;;;;3.53;1.70;;;20.90;99.90;;;;;;5000637;28;20188;-68
2021/11/26 10:26:29;;;;;;;3.40;1.70;;;21.50;99.90;;;;;;4997531;28;20220;-67
2021/11/26 10:29:05;;;;;;;3.70;2.20;;;22.70;99.90;;;;;;5036057;28;20661;-69
2021/11/26 10:31:39;;;;;;;3.93;1.90;;;24.30;99.90;;;;;;4986691;28;20553;-69
2021/11/26 10:34:08;;;;;;;2.77;1.60;;;25.10;99.90;;;;;;5008241;28;20196;-69
2021/11/26 10:36:51;;;;;;;5.10;2.00;;;24.50;99.90;;;;;;4992962;28;20283;-69
2021/11/26 10:39:23;;;;;;;3.80;1.83;;;23.10;99.90;;;;;;5005388;28;20192;-68
2021/11/26 10:41:54;;;;;;;3.67;1.73;;;22.60;99.90;;;;;;5005030;28;20196;-69
2021/11/26 10:44:47;;;;;;;5.53;1.77;;;22.20;99.90;;;;;;5006809;28;20192;-69
2021/11/26 10:47:50;;;;;;;5.40;2.13;;;21.80;99.90;;;;;;5034970;28;20292;-69
2021/11/26 10:50:23;;;;;;;6.47;1.90;;;21.80;99.90;;;;;;5003770;28;20207;-69
2021/11/26 10:58:35;;;;;;;3.03;1.90;;;21.80;99.90;;;;;;5002173;28;20193;-69
2021/11/26 11:01:10;;;;;;;6.17;1.90;;;21.50;99.90;;;;;;5004160;28;20199;-69
2021/11/26 11:03:37;;;;;;;3.07;1.90;;;21.20;99.90;;;;;;5003566;28;20192;-69
2021/11/26 11:06:14;;;;;;;5.10;1.80;;;21.00;99.90;;;;;;4985403;28;20193;-69
2021/11/26 11:08:41;;;;;;;5.43;2.20;;;20.80;99.90;;;;;;5003032;28;20213;-69
2021/11/26 11:11:07;;;;;;;3.13;1.67;;;20.60;99.90;;;;;;5008189;28;20193;-69
2021/11/26 11:13:34;;;;;;;1.80;1.70;;;20.50;99.90;;;;;;5002104;28;20192;-69
2021/11/26 11:16:12;;;;;;;3.23;1.60;;;20.40;99.90;;;;;;5005833;28;20201;-69
2021/11/26 11:18:39;;;;;;;3.23;1.80;;;20.40;99.90;;;;;;5006388;28;20691;-69
2021/11/26 11:21:08;;;;;;;3.60;1.80;;;20.40;99.90;;;;;;5006527;28;20228;-69
2021/11/26 11:23:35;;;;;;;4.43;2.10;;;20.30;99.90;;;;;;5007167;28;20205;-69
2021/11/26 11:26:03;;;;;;;4.33;1.97;;;20.30;99.90;;;;;;5004030;28;20188;-69
2021/11/26 11:28:30;;;;;;;2.97;1.87;;;20.30;99.90;;;;;;4998010;28;20221;-69
2021/11/26 11:30:56;;;;;;;3.97;1.80;;;20.30;99.90;;;;;;5002638;28;20181;-69
2021/11/26 11:33:25;;;;;;;5.53;2.03;;;20.30;99.90;;;;;;5003869;28;20192;-69
2021/11/26 11:36:00;;;;;;;8.77;1.70;;;20.30;99.90;;;;;;5007823;28;20226;-69
2021/11/26 11:38:26;;;;;;;4.30;1.80;;;20.20;99.90;;;;;;5034552;28;20326;-69
2021/11/26 11:41:02;;;;;;;3.93;1.77;;;20.10;99.90;;;;;;5002530;28;20196;-69
2021/11/26 11:43:37;;;;;;;3.30;1.87;;;20.10;99.90;;;;;;5006401;28;20195;-69
2021/11/26 11:46:07;;;;;;;3.73;1.90;;;20.00;99.90;;;;;;5006644;28;20204;-69
2021/11/26 11:48:44;;;;;;;4.60;1.73;;;20.00;99.90;;;;;;5006064;28;20223;-69
2021/11/26 11:51:30;;;;;;;6.33;1.87;;;20.00;99.90;;;;;;5002793;28;20185;-69
2021/11/26 11:54:11;;;;;;;4.30;1.70;;;20.00;99.90;;;;;;5003543;28;20227;-69
2021/11/26 11:56:43;;;;;;;1.90;1.67;;;19.90;99.90;;;;;;5003908;28;20239;-69
2021/11/26 11:59:10;;;;;;;3.20;1.87;;;19.90;99.90;;;;;;5007815;28;20227;-69
2021/11/26 12:01:43;;;;;;;4.83;1.93;;;19.80;99.90;;;;;;5005320;28;20197;-69
2021/11/26 12:04:20;;;;;;;3.47;1.90;;;19.70;99.90;;;;;;4999838;28;20315;-69
2021/11/26 12:06:51;;;;;;;4.07;1.83;;;19.70;99.90;;;;;;5012985;28;20602;-69
2021/11/26 12:09:31;;;;;;;3.80;1.80;;;19.70;99.90;;;;;;5003205;28;20204;-69
2021/11/26 12:12:13;;;;;;;5.50;1.97;;;19.70;99.90;;;;;;5001774;28;20189;-69
2021/11/26 12:14:47;;;;;;;2.60;1.73;;;19.60;99.90;;;;;;5000956;28;20533;-69
2021/11/26 12:17:33;;;;;;;4.10;2.00;;;19.50;99.90;;;;;;5000507;28;20199;-68
2021/11/26 12:20:14;;;;;;;3.30;1.67;;;19.50;99.90;;;;;;5006214;28;20250;-69
2021/11/26 12:22:55;;;;;;;4.77;2.10;;;19.60;99.90;;;;;;5002423;28;20200;-68
2021/11/26 12:25:37;;;;;;;3.87;1.87;;;19.60;99.90;;;;;;4999454;28;20285;-69
2021/11/26 12:28:48;;;;;;;6.00;2.03;;;19.60;99.90;;;;;;5010827;28;20252;-69
2021/11/26 12:31:11;;;;;;;3.80;2.27;;;19.50;99.90;;;;;;4998115;28;20302;-69
2021/11/26 12:33:40;;;;;;;4.50;1.90;;;19.40;99.90;;;;;;5004086;28;20200;-68
2021/11/26 12:36:14;;;;;;;5.70;2.53;;;19.40;99.90;;;;;;5002823;28;20199;-68
2021/11/26 12:38:50;;;;;;;2.90;1.90;;;19.30;99.90;;;;;;4998793;28;20241;-68
2021/11/26 12:41:35;;;;;;;4.47;1.80;;;19.20;99.90;;;;;;5003963;28;20689;-69
2021/11/26 12:44:03;;;;;;;5.63;2.13;;;19.20;99.90;;;;;;4999986;28;20694;-69
2021/11/26 12:46:36;;;;;;;3.87;1.97;;;19.20;99.90;;;;;;5001015;28;20668;-69
2021/11/26 12:49:16;;;;;;;6.13;1.90;;;19.10;99.90;;;;;;5018296;28;20196;-70
2021/11/26 12:51:47;;;;;;;4.70;2.03;;;19.10;99.90;;;;;;5019083;28;20190;-69
2021/11/26 12:54:33;;;;;;;3.53;1.90;;;19.00;99.90;;;;;;5001522;28;20204;-70
2021/11/26 12:57:32;;;;;;;3.33;2.07;;;19.00;99.90;;;;;;4999300;28;20195;-71
2021/11/26 13:00:05;;;;;;;3.43;1.73;;;18.90;99.90;;;;;;4998386;28;20204;-69
2021/11/26 13:02:38;;;;;;;5.43;2.17;;;18.80;99.90;;;;;;5003088;28;20216;-69